createdAt,value
2018-04-14T00:00:58.283Z,12.40
2018-04-14T00:03:24.580Z,12.40
2018-04-14T00:05:51.811Z,12.40
2018-04-14T00:08:18.029Z,12.30
2018-04-14T00:10:44.272Z,12.40
2018-04-14T00:13:10.516Z,12.40
2018-04-14T00:15:36.789Z,12.50
2018-04-14T00:18:03.032Z,12.60
2018-04-14T00:20:29.301Z,12.60
2018-04-14T00:22:55.521Z,12.70
2018-04-14T00:25:21.745Z,12.70
2018-04-14T00:27:47.977Z,12.70
2018-04-14T00:30:14.264Z,12.80
2018-04-14T00:32:41.260Z,12.90
2018-04-14T00:35:07.617Z,12.90
2018-04-14T00:37:33.946Z,12.90
2018-04-14T00:40:00.178Z,12.90
2018-04-14T00:42:26.432Z,12.90
2018-04-14T00:44:53.390Z,13.00
2018-04-14T00:47:20.590Z,12.90
2018-04-14T00:49:46.802Z,12.90
2018-04-14T00:52:13.088Z,12.80
2018-04-14T00:54:40.112Z,12.90
2018-04-14T00:57:06.450Z,12.80
2018-04-14T00:59:33.449Z,12.90
2018-04-14T01:01:59.713Z,12.90
2018-04-14T01:04:25.935Z,12.90
2018-04-14T01:06:52.182Z,12.90
2018-04-14T01:09:19.152Z,12.80
2018-04-14T01:11:45.421Z,12.80
2018-04-14T01:14:11.904Z,12.70
2018-04-14T01:16:38.122Z,12.70
2018-04-14T01:19:05.102Z,12.70
2018-04-14T01:21:31.329Z,12.60
2018-04-14T01:23:57.599Z,12.60
2018-04-14T01:26:23.828Z,12.60
2018-04-14T01:28:50.694Z,12.60
2018-04-14T01:31:17.701Z,12.40
2018-04-14T01:33:43.967Z,12.40
2018-04-14T01:36:10.214Z,12.40
2018-04-14T01:38:37.185Z,12.40
2018-04-14T01:41:03.455Z,12.30
2018-04-14T01:43:29.732Z,12.40
2018-04-14T01:45:55.971Z,12.40
2018-04-14T01:48:22.235Z,12.40
2018-04-14T01:50:48.483Z,12.40
2018-04-14T01:53:14.756Z,12.50
2018-04-14T01:55:40.978Z,12.50
2018-04-14T01:58:07.220Z,12.50
2018-04-14T02:00:33.436Z,12.50
2018-04-14T02:02:59.674Z,12.50
2018-04-14T02:05:25.999Z,12.50
2018-04-14T02:07:52.559Z,12.40
2018-04-14T02:10:18.801Z,12.50
2018-04-14T02:12:45.067Z,12.50
2018-04-14T02:15:11.306Z,12.50
2018-04-14T02:17:37.548Z,12.50
2018-04-14T02:20:03.877Z,12.50
2018-04-14T02:22:30.092Z,12.50
2018-04-14T02:24:56.423Z,12.50
2018-04-14T02:27:22.794Z,12.50
2018-04-14T02:29:49.032Z,12.60
2018-04-14T02:32:15.260Z,12.60
2018-04-14T02:34:41.501Z,12.60
2018-04-14T02:37:07.801Z,12.60
2018-04-14T02:39:34.099Z,12.60
2018-04-14T02:42:00.414Z,12.50
2018-04-14T02:44:27.373Z,12.50
2018-04-14T02:46:53.638Z,12.40
2018-04-14T02:49:19.881Z,12.40
2018-04-14T02:51:46.129Z,12.30
2018-04-14T02:54:13.069Z,12.30
2018-04-14T02:56:40.073Z,12.20
2018-04-14T02:59:06.295Z,12.20
2018-04-14T03:01:32.667Z,12.20
2018-04-14T03:03:59.652Z,12.10
2018-04-14T03:06:25.888Z,12.10
2018-04-14T03:08:52.129Z,12.10
2018-04-14T03:11:18.338Z,12.10
2018-04-14T03:13:44.642Z,12.00
2018-04-14T03:16:10.964Z,12.00
2018-04-14T03:18:37.924Z,11.90
2018-04-14T03:21:04.204Z,11.90
2018-04-14T03:23:30.446Z,11.90
2018-04-14T03:25:56.711Z,11.80
2018-04-14T03:28:23.749Z,11.80
2018-04-14T03:30:50.011Z,11.70
2018-04-14T03:33:16.242Z,11.70
2018-04-14T03:35:42.504Z,11.70
2018-04-14T03:38:09.545Z,11.60
2018-04-14T03:40:35.808Z,11.60
2018-04-14T03:43:02.156Z,11.60
2018-04-14T03:45:28.397Z,11.60
2018-04-14T03:47:54.607Z,11.60
2018-04-14T03:50:20.891Z,11.60
2018-04-14T03:52:47.168Z,11.60
2018-04-14T03:55:13.458Z,11.70
2018-04-14T03:57:39.772Z,11.70
2018-04-14T04:00:06.073Z,11.80
2018-04-14T04:02:32.292Z,11.80
2018-04-14T04:04:58.491Z,11.80
2018-04-14T04:07:25.584Z,11.80
2018-04-14T04:09:51.824Z,11.80
2018-04-14T04:12:18.076Z,11.80
2018-04-14T04:14:44.381Z,11.80
2018-04-14T04:17:10.836Z,11.80
2018-04-14T04:19:49.280Z,11.90
2018-04-14T04:22:28.004Z,11.90
2018-04-14T04:25:06.475Z,11.90
2018-04-14T04:27:32.683Z,11.90
2018-04-14T04:29:58.896Z,11.90
2018-04-14T04:32:25.153Z,11.90
2018-04-14T04:34:52.125Z,11.90
2018-04-14T04:37:19.252Z,11.90
2018-04-14T04:39:45.697Z,11.80
2018-04-14T04:42:13.040Z,11.90
2018-04-14T04:44:40.052Z,11.90
2018-04-14T04:47:06.259Z,11.90
2018-04-14T04:49:33.282Z,11.90
2018-04-14T04:51:59.502Z,11.90
2018-04-14T04:54:26.486Z,11.90
2018-04-14T04:56:52.746Z,11.90
2018-04-14T04:59:19.187Z,11.90
2018-04-14T05:01:45.409Z,11.90
2018-04-14T05:04:11.648Z,11.80
2018-04-14T05:06:37.951Z,11.80
2018-04-14T05:09:04.204Z,11.90
2018-04-14T05:11:31.170Z,11.90
2018-04-14T05:13:57.440Z,11.90
2018-04-14T05:16:24.511Z,11.90
2018-04-14T05:18:50.731Z,11.90
2018-04-14T05:21:16.980Z,11.90
2018-04-14T05:23:43.194Z,11.80
2018-04-14T05:26:09.388Z,11.80
2018-04-14T05:28:35.604Z,11.80
2018-04-14T05:31:01.812Z,11.80
2018-04-14T05:33:28.857Z,11.80
2018-04-14T05:35:55.425Z,11.80
2018-04-14T05:38:23.401Z,11.80
2018-04-14T05:40:49.672Z,11.90
2018-04-14T05:43:15.891Z,12.00
2018-04-14T05:45:42.100Z,12.00
2018-04-14T05:48:08.401Z,12.10
2018-04-14T05:50:34.681Z,12.20
2018-04-14T05:53:01.080Z,12.30
2018-04-14T05:55:27.355Z,12.30
2018-04-14T05:57:53.628Z,12.50
2018-04-14T06:00:19.873Z,12.50
2018-04-14T06:02:46.088Z,12.60
2018-04-14T06:05:12.304Z,12.60
2018-04-14T06:07:38.587Z,12.60
2018-04-14T06:10:04.862Z,12.60
2018-04-14T06:12:31.092Z,12.70
2018-04-14T06:14:57.411Z,12.70
2018-04-14T06:17:24.448Z,12.90
2018-04-14T06:19:51.429Z,13.00
2018-04-14T06:22:17.694Z,13.00
2018-04-14T06:24:43.937Z,13.20
2018-04-14T06:27:10.914Z,13.50
2018-04-14T06:29:37.172Z,13.50
2018-04-14T06:32:03.448Z,13.60
2018-04-14T06:34:30.465Z,13.80
2018-04-14T06:36:57.538Z,14.00
2018-04-14T06:39:24.724Z,14.10
2018-04-14T06:41:51.083Z,14.10
2018-04-14T06:44:17.325Z,14.30
2018-04-14T06:46:43.574Z,14.40
2018-04-14T06:49:10.639Z,14.70
2018-04-14T06:51:37.817Z,14.90
2018-04-14T06:54:04.106Z,14.90
2018-04-14T06:56:30.644Z,15.10
2018-04-14T06:58:57.700Z,15.50
2018-04-14T07:01:24.210Z,15.50
2018-04-14T07:03:50.553Z,15.70
2018-04-14T07:06:17.665Z,15.80
2018-04-14T07:08:43.992Z,15.80
2018-04-14T07:11:10.613Z,15.70
2018-04-14T07:13:37.117Z,15.70
2018-04-14T07:16:03.390Z,15.80
2018-04-14T07:18:29.633Z,16.00
2018-04-14T07:20:55.855Z,16.30
2018-04-14T07:23:22.438Z,17.00
2018-04-14T07:25:49.376Z,18.00
2018-04-14T07:28:16.418Z,18.40
2018-04-14T07:30:43.530Z,19.10
2018-04-14T07:33:10.631Z,20.00
2018-04-14T07:35:37.121Z,20.00
2018-04-14T07:38:03.477Z,20.60
2018-04-14T07:40:30.480Z,21.20
2018-04-14T07:42:56.701Z,21.20
2018-04-14T07:45:23.135Z,21.40
2018-04-14T07:47:49.525Z,21.60
2018-04-14T07:50:16.150Z,21.70
2018-04-14T07:52:42.441Z,21.40
2018-04-14T07:55:08.697Z,20.70
2018-04-14T07:57:35.016Z,20.20
2018-04-14T08:00:01.265Z,20.00
2018-04-14T08:02:28.332Z,20.00
2018-04-14T08:04:54.563Z,19.90
2018-04-14T08:07:20.838Z,20.20
2018-04-14T08:09:47.062Z,20.40
2018-04-14T08:12:13.352Z,20.60
2018-04-14T08:14:39.640Z,20.80
2018-04-14T08:17:05.872Z,21.00
2018-04-14T08:19:32.917Z,21.20
2018-04-14T08:21:59.905Z,21.00
2018-04-14T08:24:26.146Z,21.00
2018-04-14T08:26:52.668Z,20.80
2018-04-14T08:29:18.939Z,20.50
2018-04-14T08:31:45.232Z,20.20
2018-04-14T08:34:11.472Z,20.00
2018-04-14T08:36:37.749Z,20.10
2018-04-14T08:39:04.791Z,20.30
2018-04-14T08:41:31.832Z,20.40
2018-04-14T08:43:58.168Z,20.30
2018-04-14T08:46:25.185Z,20.20
2018-04-14T08:48:58.386Z,20.20
2018-04-14T08:51:24.617Z,20.10
2018-04-14T08:53:52.659Z,20.20
2018-04-14T08:56:18.920Z,20.20
2018-04-14T08:58:45.304Z,20.20
2018-04-14T09:01:11.516Z,20.30
2018-04-14T09:03:37.752Z,20.60
2018-04-14T09:06:04.011Z,20.80
2018-04-14T09:08:30.349Z,20.70
2018-04-14T09:10:56.876Z,21.00
2018-04-14T09:13:23.520Z,22.00
2018-04-14T09:15:49.752Z,24.10
2018-04-14T09:18:15.973Z,25.80
2018-04-14T09:20:42.220Z,25.50
2018-04-14T09:23:08.433Z,24.40
2018-04-14T09:25:34.839Z,23.20
2018-04-14T09:28:02.284Z,22.20
2018-04-14T09:30:28.564Z,21.60
2018-04-14T09:32:54.848Z,21.30
2018-04-14T09:35:21.257Z,21.10
2018-04-14T09:37:47.508Z,21.10
2018-04-14T09:40:13.736Z,22.10
2018-04-14T09:42:39.969Z,23.30
2018-04-14T09:45:06.235Z,24.20
2018-04-14T09:47:32.842Z,24.40
2018-04-14T09:49:59.065Z,24.60
2018-04-14T09:52:25.283Z,25.00
2018-04-14T09:54:51.505Z,25.10
2018-04-14T09:57:17.887Z,25.40
2018-04-14T09:59:44.124Z,25.20
2018-04-14T10:02:10.345Z,25.20
2018-04-14T10:04:36.750Z,25.30
2018-04-14T10:07:03.065Z,25.50
2018-04-14T10:09:29.492Z,25.70
2018-04-14T10:11:55.740Z,25.80
2018-04-14T10:14:21.980Z,25.80
2018-04-14T10:16:55.165Z,25.20
2018-04-14T10:19:21.555Z,24.70
2018-04-14T10:21:47.822Z,24.00
2018-04-14T10:24:14.013Z,23.80
2018-04-14T10:26:40.322Z,23.70
2018-04-14T10:29:06.599Z,23.30
2018-04-14T10:31:32.816Z,22.90
2018-04-14T10:33:59.016Z,22.60
2018-04-14T10:36:25.222Z,21.80
2018-04-14T10:38:51.450Z,21.50
2018-04-14T10:41:18.411Z,21.50
2018-04-14T10:43:45.464Z,21.60
2018-04-14T10:46:11.732Z,21.50
2018-04-14T10:48:38.010Z,21.40
2018-04-14T10:51:04.993Z,22.00
2018-04-14T10:53:31.208Z,22.00
2018-04-14T10:55:57.504Z,22.50
2018-04-14T10:58:24.494Z,22.90
2018-04-14T11:00:50.719Z,22.90
2018-04-14T11:03:16.983Z,23.20
2018-04-14T11:05:43.210Z,23.10
2018-04-14T11:08:09.498Z,22.50
2018-04-14T11:10:35.726Z,22.30
2018-04-14T11:13:02.024Z,22.40
2018-04-14T11:15:29.011Z,22.40
2018-04-14T11:17:55.257Z,22.40
2018-04-14T11:20:21.550Z,22.40
2018-04-14T11:22:47.979Z,22.50
2018-04-14T11:25:15.129Z,22.30
2018-04-14T11:27:41.357Z,22.30
2018-04-14T11:30:07.594Z,22.30
2018-04-14T11:32:33.893Z,22.20
2018-04-14T11:35:00.871Z,22.30
2018-04-14T11:37:27.246Z,22.30
2018-04-14T11:39:53.661Z,22.60
2018-04-14T11:42:19.945Z,22.70
2018-04-14T11:44:46.213Z,22.70
2018-04-14T11:47:19.473Z,22.60
2018-04-14T11:49:45.722Z,22.70
2018-04-14T11:52:11.930Z,22.70
2018-04-14T11:54:38.162Z,22.30
2018-04-14T11:57:04.388Z,21.80
2018-04-14T11:59:30.612Z,21.70
2018-04-14T12:01:56.963Z,21.70
2018-04-14T12:04:23.231Z,21.60
2018-04-14T12:06:49.520Z,21.60
2018-04-14T12:09:15.819Z,21.40
2018-04-14T12:11:42.958Z,21.30
2018-04-14T12:14:09.983Z,21.20
2018-04-14T12:16:36.265Z,21.20
2018-04-14T12:19:02.482Z,21.50
2018-04-14T12:21:28.886Z,21.90
2018-04-14T12:23:55.197Z,22.10
2018-04-14T12:26:21.437Z,22.10
2018-04-14T12:28:47.689Z,22.00
2018-04-14T12:31:14.689Z,21.90
2018-04-14T12:33:40.949Z,21.90
2018-04-14T12:36:07.936Z,22.20
2018-04-14T12:38:34.205Z,22.20
2018-04-14T12:41:00.442Z,22.40
2018-04-14T12:43:26.667Z,22.30
2018-04-14T12:45:53.681Z,22.00
2018-04-14T12:48:19.918Z,22.00
2018-04-14T12:50:46.176Z,21.90
2018-04-14T12:53:12.528Z,21.90
2018-04-14T12:55:39.475Z,22.00
2018-04-14T12:58:05.812Z,22.00
2018-04-14T13:00:32.125Z,22.10
2018-04-14T13:02:58.504Z,22.10
2018-04-14T13:05:24.797Z,21.90
2018-04-14T13:07:51.816Z,21.90
2018-04-14T13:10:18.213Z,21.90
2018-04-14T13:12:44.496Z,21.70
2018-04-14T13:15:11.471Z,21.70
2018-04-14T13:17:37.743Z,21.70
2018-04-14T13:20:04.769Z,21.90
2018-04-14T13:22:31.024Z,21.90
2018-04-14T13:24:57.340Z,21.90
2018-04-14T13:27:24.599Z,21.80
2018-04-14T13:29:51.620Z,21.80
2018-04-14T13:32:18.000Z,21.80
2018-04-14T13:34:44.997Z,21.80
2018-04-14T13:37:11.268Z,21.80
2018-04-14T13:39:38.303Z,21.90
2018-04-14T13:42:05.284Z,22.00
2018-04-14T13:44:31.551Z,21.90
2018-04-14T13:46:57.873Z,22.00
2018-04-14T13:49:24.118Z,22.00
2018-04-14T13:51:50.328Z,22.00
2018-04-14T13:54:16.634Z,22.00
2018-04-14T13:56:43.726Z,22.10
2018-04-14T13:59:10.734Z,22.10
2018-04-14T14:01:36.976Z,22.10
2018-04-14T14:04:03.245Z,22.10
2018-04-14T14:06:30.196Z,22.10
2018-04-14T14:08:56.469Z,22.10
2018-04-14T14:11:22.722Z,22.00
2018-04-14T14:13:49.009Z,21.90
2018-04-14T14:16:15.269Z,21.80
2018-04-14T14:18:41.498Z,21.80
2018-04-14T14:21:07.856Z,21.80
2018-04-14T14:23:34.072Z,21.80
2018-04-14T14:26:00.340Z,21.70
2018-04-14T14:28:26.554Z,21.50
2018-04-14T14:30:53.631Z,21.40
2018-04-14T14:33:19.979Z,21.40
2018-04-14T14:35:46.303Z,21.50
2018-04-14T14:38:12.645Z,21.50
2018-04-14T14:40:38.952Z,21.50
2018-04-14T14:43:05.220Z,21.40
2018-04-14T14:45:31.500Z,21.40
2018-04-14T14:47:57.817Z,21.50
2018-04-14T14:50:28.145Z,21.50
2018-04-14T14:52:54.507Z,21.50
2018-04-14T14:55:20.855Z,21.50
2018-04-14T14:57:47.166Z,21.50
2018-04-14T15:00:13.513Z,21.40
2018-04-14T15:02:40.610Z,21.40
2018-04-14T15:05:07.606Z,21.20
2018-04-14T15:07:33.842Z,21.20
2018-04-14T15:10:00.080Z,21.10
2018-04-14T15:12:26.348Z,21.10
2018-04-14T15:14:52.614Z,21.20
2018-04-14T15:17:18.865Z,21.20
2018-04-14T15:19:45.112Z,21.20
2018-04-14T15:22:12.117Z,21.30
2018-04-14T15:24:38.337Z,21.30
2018-04-14T15:27:04.577Z,21.20
2018-04-14T15:29:30.812Z,21.10
2018-04-14T15:31:57.144Z,21.10
2018-04-14T15:34:24.585Z,21.20
2018-04-14T15:36:50.895Z,21.20
2018-04-14T15:39:18.064Z,21.40
2018-04-14T15:41:44.303Z,21.40
2018-04-14T15:44:10.568Z,21.50
2018-04-14T15:46:36.842Z,21.50
2018-04-14T15:49:03.431Z,21.20
2018-04-14T15:51:30.459Z,20.60
2018-04-14T15:53:57.476Z,20.50
2018-04-14T15:56:23.827Z,20.50
2018-04-14T15:58:50.152Z,20.40
2018-04-14T16:01:16.453Z,20.30
2018-04-14T16:03:44.725Z,20.20
2018-04-14T16:06:10.024Z,19.90
2018-04-14T16:08:36.275Z,19.90
2018-04-14T16:11:02.556Z,19.90
2018-04-14T16:13:29.529Z,20.30
2018-04-14T16:15:55.801Z,20.20
2018-04-14T16:18:22.101Z,20.40
2018-04-14T16:20:48.332Z,20.40
2018-04-14T16:23:14.716Z,20.40
2018-04-14T16:25:41.114Z,20.40
2018-04-14T16:28:07.546Z,20.40
2018-04-14T16:30:33.879Z,20.20
2018-04-14T16:33:00.223Z,20.10
2018-04-14T16:35:27.316Z,20.10
2018-04-14T16:37:53.639Z,20.00
2018-04-14T16:40:19.857Z,19.80
2018-04-14T16:42:46.905Z,19.70
2018-04-14T16:45:13.311Z,19.60
2018-04-14T16:47:39.679Z,19.70
2018-04-14T16:50:06.062Z,19.70
2018-04-14T16:52:32.355Z,19.50
2018-04-14T16:54:58.784Z,19.50
2018-04-14T16:57:26.891Z,19.50
2018-04-14T16:59:53.282Z,19.40
2018-04-14T17:02:20.325Z,19.40
2018-04-14T17:04:53.772Z,19.40
2018-04-14T17:07:20.791Z,19.60
2018-04-14T17:09:47.064Z,19.50
2018-04-14T17:12:14.629Z,19.60
2018-04-14T17:14:41.034Z,19.60
2018-04-14T17:17:07.240Z,19.40
2018-04-14T17:19:33.469Z,19.20
2018-04-14T17:21:59.678Z,19.10
2018-04-14T17:24:25.886Z,19.10
2018-04-14T17:26:52.854Z,19.00
2018-04-14T17:29:19.114Z,19.00
2018-04-14T17:31:46.204Z,19.00
2018-04-14T17:34:13.207Z,19.00
2018-04-14T17:36:39.853Z,18.90
2018-04-14T17:39:06.099Z,19.00
2018-04-14T17:41:32.401Z,19.00
2018-04-14T17:43:58.807Z,19.00
2018-04-14T17:46:25.577Z,18.90
2018-04-14T17:48:51.955Z,18.80
2018-04-14T17:51:18.193Z,18.70
2018-04-14T17:53:44.470Z,18.70
2018-04-14T17:56:10.692Z,18.70
2018-04-14T17:58:36.921Z,18.60
2018-04-14T18:01:03.296Z,18.40
2018-04-14T18:03:29.616Z,18.40
2018-04-14T18:05:56.751Z,18.40
2018-04-14T18:08:23.031Z,18.40
2018-04-14T18:10:49.285Z,18.40
2018-04-14T18:13:15.538Z,18.30
2018-04-14T18:15:42.552Z,18.30
2018-04-14T18:18:08.780Z,18.40
2018-04-14T18:20:40.981Z,18.40
2018-04-14T18:23:14.537Z,18.30
2018-04-14T18:25:46.880Z,18.30
2018-04-14T18:28:20.051Z,18.20
2018-04-14T18:30:46.461Z,18.20
2018-04-14T18:33:12.707Z,18.30
2018-04-14T18:35:38.970Z,18.30
2018-04-14T18:38:05.249Z,18.40
2018-04-14T18:40:31.799Z,18.40
2018-04-14T18:42:58.236Z,18.30
2018-04-14T18:45:24.497Z,18.20
2018-04-14T18:47:50.720Z,18.20
2018-04-14T18:50:17.016Z,18.30
2018-04-14T18:52:43.282Z,18.20
2018-04-14T18:55:09.520Z,18.10
2018-04-14T18:57:37.201Z,18.10
2018-04-14T19:00:03.985Z,18.00
2018-04-14T19:02:31.058Z,17.70
2018-04-14T19:04:57.457Z,17.70
2018-04-14T19:07:24.444Z,17.60
2018-04-14T19:09:50.700Z,17.50
2018-04-14T19:12:18.769Z,17.50
2018-04-14T19:14:44.988Z,17.40
2018-04-14T19:17:11.242Z,17.30
2018-04-14T19:19:37.609Z,17.20
2018-04-14T19:22:04.030Z,17.10
2018-04-14T19:24:30.340Z,17.00
2018-04-14T19:26:56.548Z,17.00
2018-04-14T19:29:22.801Z,17.10
2018-04-14T19:31:49.768Z,17.00
2018-04-14T19:34:16.028Z,17.00
2018-04-14T19:36:42.370Z,17.00
2018-04-14T19:39:08.707Z,16.90
2018-04-14T19:41:35.689Z,16.90
2018-04-14T19:44:01.918Z,16.80
2018-04-14T19:46:28.876Z,16.70
2018-04-14T19:48:55.340Z,16.60
2018-04-14T19:51:28.409Z,16.60
2018-04-14T19:53:54.678Z,16.60
2018-04-14T19:56:20.981Z,16.50
2018-04-14T19:58:47.207Z,16.40
2018-04-14T20:01:13.539Z,16.40
2018-04-14T20:03:40.593Z,16.30
2018-04-14T20:06:06.993Z,16.20
2018-04-14T20:08:34.165Z,16.20
2018-04-14T20:11:00.410Z,16.10
2018-04-14T20:13:26.643Z,16.20
2018-04-14T20:15:52.943Z,16.20
2018-04-14T20:18:19.187Z,16.10
2018-04-14T20:20:45.474Z,16.00
2018-04-14T20:23:11.804Z,15.90
2018-04-14T20:25:38.033Z,15.90
2018-04-14T20:28:04.978Z,15.90
2018-04-14T20:30:31.965Z,15.70
2018-04-14T20:32:58.230Z,15.70
2018-04-14T20:35:25.213Z,15.70
2018-04-14T20:37:51.645Z,15.60
2018-04-14T20:40:17.898Z,15.50
2018-04-14T20:42:44.139Z,15.60
2018-04-14T20:45:10.364Z,15.50
2018-04-14T20:47:36.604Z,15.50
2018-04-14T20:50:02.874Z,15.50
2018-04-14T20:52:29.171Z,15.50
2018-04-14T20:54:57.791Z,15.50
2018-04-14T20:57:24.130Z,15.50
2018-04-14T20:59:50.416Z,15.50
2018-04-14T21:02:16.714Z,15.50
2018-04-14T21:04:42.928Z,15.40
2018-04-14T21:07:09.186Z,15.40
2018-04-14T21:09:35.377Z,15.50
2018-04-14T21:12:01.623Z,15.40
2018-04-14T21:14:27.969Z,15.50
2018-04-14T21:16:55.201Z,15.50
2018-04-14T21:19:21.443Z,15.50
2018-04-14T21:21:47.676Z,15.40
2018-04-14T21:24:13.907Z,15.40
2018-04-14T21:26:40.380Z,15.40
2018-04-14T21:29:06.593Z,15.40
2018-04-14T21:31:33.614Z,15.40
2018-04-14T21:33:59.893Z,15.40
2018-04-14T21:36:26.158Z,15.30
2018-04-14T21:38:52.429Z,15.30
2018-04-14T21:41:19.416Z,15.20
2018-04-14T21:43:45.679Z,15.20
2018-04-14T21:46:12.648Z,15.30
2018-04-14T21:48:39.614Z,15.30
2018-04-14T21:51:07.004Z,15.30
2018-04-14T21:53:33.453Z,15.30
2018-04-14T21:55:59.828Z,15.30
2018-04-14T21:58:26.077Z,15.40
2018-04-14T22:00:52.308Z,15.40
2018-04-14T22:03:18.513Z,15.40
2018-04-14T22:05:44.798Z,15.30
2018-04-14T22:08:11.063Z,15.30
2018-04-14T22:10:38.077Z,15.40
2018-04-14T22:13:05.216Z,15.40
2018-04-14T22:15:31.588Z,15.40
2018-04-14T22:17:57.848Z,15.50
2018-04-14T22:20:24.052Z,15.50
2018-04-14T22:22:51.012Z,15.50
2018-04-14T22:25:17.281Z,15.50
2018-04-14T22:27:43.526Z,15.40
2018-04-14T22:30:10.562Z,15.40
2018-04-14T22:32:36.845Z,15.40
2018-04-14T22:35:03.116Z,15.40
2018-04-14T22:37:29.368Z,15.40
2018-04-14T22:39:56.333Z,15.40
2018-04-14T22:42:22.575Z,15.40
2018-04-14T22:44:48.843Z,15.40
2018-04-14T22:47:15.080Z,15.40
2018-04-14T22:49:41.300Z,15.40
2018-04-14T22:52:07.528Z,15.40
2018-04-14T22:54:34.500Z,15.40
2018-04-14T22:57:01.516Z,15.50
2018-04-14T22:59:27.730Z,15.40
2018-04-14T23:01:55.333Z,15.50
2018-04-14T23:04:22.307Z,15.40
2018-04-14T23:06:48.551Z,15.30
2018-04-14T23:09:14.861Z,15.30
2018-04-14T23:11:41.139Z,15.30
2018-04-14T23:14:07.379Z,15.40
2018-04-14T23:16:33.585Z,15.30
2018-04-14T23:18:59.813Z,15.20
2018-04-14T23:21:26.002Z,15.10
2018-04-14T23:23:52.209Z,15.00
2018-04-14T23:26:19.164Z,15.00
2018-04-14T23:28:46.356Z,15.00
2018-04-14T23:31:12.556Z,15.00
2018-04-14T23:33:38.792Z,15.00
2018-04-14T23:36:05.024Z,14.90
2018-04-14T23:38:31.236Z,14.90
2018-04-14T23:40:57.476Z,14.90
2018-04-14T23:43:23.678Z,14.90
2018-04-14T23:45:49.943Z,14.90
2018-04-14T23:48:16.200Z,14.80
2018-04-14T23:50:42.437Z,14.70
2018-04-14T23:53:09.401Z,14.70
2018-04-14T23:55:36.350Z,14.80
2018-04-14T23:58:03.332Z,14.70
